Time;durP1;ratioP1;P1;durP2;ratioP2;P2;SDS_P1;SDS_P2;PMS_P1;PMS_P2;Temp;Humidity;BMP_temperature;BMP_pressure;BME280_temperature;BME280_humidity;BME280_pressure;Samples;Min_cycle;Max_cycle;Signal;HPM_P1;HPM_P2
2021/03/23 06:03:36;;;;;;;11.43;3.97;;;5.70;99.90;;;;;;6186932;23;20646;-85
2021/03/23 06:06:31;;;;;;;8.97;3.13;;;5.70;99.90;;;;;;6187652;23;20151;-85
2021/03/23 06:08:59;;;;;;;8.87;3.50;;;5.70;99.90;;;;;;6188132;23;20197;-85
2021/03/23 06:11:27;;;;;;;11.57;3.97;;;5.70;99.90;;;;;;6189570;23;20188;-85
2021/03/23 06:39:39;;;;;;;10.53;3.70;;;5.90;99.90;;;;;;6217741;23;20179;-85
2021/03/23 06:42:05;;;;;;;19.90;7.17;;;5.80;99.90;;;;;;6216666;23;20174;-85
2021/03/23 06:44:36;;;;;;;11.43;5.00;;;5.70;99.90;;;;;;6222685;23;20155;-85
2021/03/23 06:47:04;;;;;;;18.57;6.10;;;5.70;99.90;;;;;;6194085;23;20557;-84
2021/03/23 06:49:34;;;;;;;11.60;4.23;;;5.90;99.90;;;;;;6218200;23;20155;-85
2021/03/23 08:12:20;;;;;;;11.00;3.67;;;6.50;99.90;;;;;;6158844;23;20204;-86
2021/03/23 08:14:55;;;;;;;11.37;4.97;;;6.50;99.90;;;;;;6157072;23;20216;-85
2021/03/23 08:18:14;;;;;;;9.40;3.93;;;6.60;99.90;;;;;;6161060;23;20561;-86
2021/03/23 08:20:47;;;;;;;7.80;3.23;;;6.70;99.90;;;;;;6069826;23;20214;-86
2021/03/23 08:23:34;;;;;;;5.93;2.80;;;6.70;99.90;;;;;;6128561;23;20158;-86
2021/03/23 08:26:26;;;;;;;7.03;2.90;;;6.80;99.90;;;;;;6132152;23;20219;-86
2021/03/23 08:29:14;;;;;;;9.70;2.87;;;6.80;99.90;;;;;;6129364;23;20181;-86
2021/03/23 08:31:58;;;;;;;9.37;2.70;;;6.80;99.90;;;;;;6129189;23;20182;-87
2021/03/23 08:35:15;;;;;;;7.00;3.17;;;6.90;99.90;;;;;;6126895;23;20636;-85
2021/03/23 08:38:12;;;;;;;7.53;2.73;;;6.90;99.90;;;;;;6098095;23;20193;-86
2021/03/23 08:40:45;;;;;;;9.37;3.77;;;6.90;99.90;;;;;;6132183;23;20236;-86
2021/03/23 08:43:16;;;;;;;7.20;3.27;;;6.90;99.90;;;;;;6132062;23;20161;-85
2021/03/23 08:45:47;;;;;;;10.13;2.80;;;6.90;99.90;;;;;;6132609;23;20206;-86
2021/03/23 08:48:27;;;;;;;9.37;3.73;;;6.90;99.90;;;;;;6131367;23;20487;-85
2021/03/23 08:51:00;;;;;;;6.90;3.00;;;6.90;99.90;;;;;;6130430;23;20537;-85
2021/03/23 08:53:33;;;;;;;8.17;3.17;;;7.00;99.90;;;;;;6133045;23;20189;-86
2021/03/23 08:56:06;;;;;;;9.60;3.13;;;7.00;99.90;;;;;;6133495;23;20153;-85
2021/03/23 08:58:42;;;;;;;7.23;2.67;;;7.00;99.90;;;;;;6131725;23;20256;-85
2021/03/23 09:01:26;;;;;;;7.83;3.07;;;7.00;99.90;;;;;;6133139;23;20228;-86
2021/03/23 09:04:12;;;;;;;9.20;3.10;;;7.00;99.90;;;;;;6130653;23;20160;-85
2021/03/23 09:06:54;;;;;;;8.67;3.43;;;7.10;99.90;;;;;;6122607;23;20223;-85
2021/03/23 09:09:28;;;;;;;8.27;3.50;;;7.10;99.90;;;;;;6130687;23;20722;-85
2021/03/23 09:12:15;;;;;;;7.77;3.43;;;7.00;99.90;;;;;;6132371;23;20527;-86
2021/03/23 09:15:09;;;;;;;6.83;2.87;;;7.00;99.90;;;;;;6134638;23;20181;-85
2021/03/23 09:17:56;;;;;;;10.70;4.90;;;7.00;99.90;;;;;;6134686;23;20161;-86
2021/03/23 09:20:48;;;;;;;10.67;3.97;;;7.00;99.90;;;;;;6129795;23;20177;-84
2021/03/23 09:23:17;;;;;;;10.20;4.07;;;7.10;99.90;;;;;;6129131;23;20158;-86
2021/03/23 09:25:58;;;;;;;9.77;3.93;;;7.10;99.90;;;;;;6133578;23;20168;-86
2021/03/23 09:28:30;;;;;;;11.47;4.00;;;7.10;99.90;;;;;;6133206;23;20146;-85
2021/03/23 09:30:58;;;;;;;12.13;4.37;;;7.10;99.90;;;;;;6133155;23;20246;-85
2021/03/23 09:33:23;;;;;;;11.00;4.70;;;7.10;99.90;;;;;;6135100;23;20502;-85
2021/03/23 09:36:24;;;;;;;13.23;4.93;;;7.20;99.90;;;;;;6133566;23;20158;-86
2021/03/23 09:39:14;;;;;;;13.60;5.40;;;7.20;99.90;;;;;;6134206;23;20204;-85
2021/03/23 09:41:42;;;;;;;10.20;3.77;;;7.30;99.90;;;;;;6125453;23;20502;-86
2021/03/23 09:44:11;;;;;;;10.97;4.53;;;7.30;99.90;;;;;;6131861;23;20509;-85
2021/03/23 09:46:45;;;;;;;12.87;5.13;;;7.40;99.90;;;;;;6131986;23;20154;-85
2021/03/23 09:49:19;;;;;;;10.40;4.60;;;7.50;99.90;;;;;;6131002;23;20299;-84
2021/03/23 09:52:04;;;;;;;12.77;4.70;;;7.60;99.90;;;;;;6130826;23;20647;-86
2021/03/23 09:54:56;;;;;;;12.00;5.73;;;7.70;99.90;;;;;;6131654;23;20145;-84
2021/03/23 09:57:24;;;;;;;13.87;5.70;;;7.70;99.90;;;;;;6131828;23;20149;-83
2021/03/23 09:59:52;;;;;;;13.00;5.73;;;7.70;99.90;;;;;;6132361;23;20178;-86
2021/03/23 10:02:26;;;;;;;14.83;5.47;;;7.70;99.90;;;;;;6133044;23;20176;-85
2021/03/23 10:04:52;;;;;;;13.83;4.93;;;7.80;99.90;;;;;;6134525;23;20141;-86
2021/03/23 10:07:35;;;;;;;12.20;5.47;;;7.80;99.90;;;;;;6133844;23;20296;-87
2021/03/23 10:10:26;;;;;;;14.50;5.80;;;7.80;99.90;;;;;;6130544;23;20232;-85
2021/03/23 10:12:58;;;;;;;11.93;5.30;;;7.80;99.90;;;;;;6130770;23;20287;-86
2021/03/23 10:15:35;;;;;;;12.00;5.13;;;7.90;99.90;;;;;;6130895;23;20173;-86
2021/03/23 10:18:09;;;;;;;11.33;4.77;;;7.90;99.90;;;;;;6131523;23;20276;-86
2021/03/23 10:20:35;;;;;;;13.07;5.33;;;8.00;99.90;;;;;;6131596;23;20485;-86
2021/03/23 10:23:02;;;;;;;11.57;5.13;;;8.10;99.90;;;;;;6132907;23;20233;-86
2021/03/23 10:25:28;;;;;;;9.97;4.33;;;8.10;99.90;;;;;;6129651;23;20158;-87
2021/03/23 10:27:59;;;;;;;10.73;4.93;;;8.20;99.90;;;;;;6131102;23;20173;-87
2021/03/23 10:30:27;;;;;;;11.00;4.97;;;8.30;99.90;;;;;;6131342;23;20177;-87
2021/03/23 10:32:56;;;;;;;12.97;5.97;;;8.40;99.90;;;;;;6132921;23;20212;-87
2021/03/23 10:35:46;;;;;;;12.97;5.90;;;8.60;99.90;;;;;;6133335;23;20561;-86
2021/03/23 10:38:29;;;;;;;15.73;5.40;;;8.60;99.90;;;;;;6129793;23;20185;-86
2021/03/23 10:41:01;;;;;;;10.83;4.70;;;8.50;99.90;;;;;;6135468;23;20651;-86
2021/03/23 10:43:40;;;;;;;14.57;5.33;;;8.50;99.90;;;;;;6135395;23;20144;-86
2021/03/23 10:46:31;;;;;;;12.57;4.97;;;8.60;99.90;;;;;;6133759;23;20146;-87
2021/03/23 10:49:28;;;;;;;11.47;5.00;;;8.70;99.90;;;;;;6133642;23;20177;-87
2021/03/23 10:51:57;;;;;;;12.43;5.27;;;8.60;99.90;;;;;;6136079;23;20173;-87
2021/03/23 10:54:26;;;;;;;11.53;4.97;;;8.70;99.90;;;;;;6135045;23;20157;-86
2021/03/23 10:56:55;;;;;;;10.40;5.03;;;8.80;99.90;;;;;;6134412;23;20158;-86
2021/03/23 10:59:30;;;;;;;12.97;4.97;;;8.80;99.90;;;;;;6133352;23;20189;-87
2021/03/23 11:02:08;;;;;;;10.67;5.17;;;8.80;99.90;;;;;;6137339;23;20138;-87
2021/03/23 11:04:37;;;;;;;11.53;5.10;;;8.70;99.90;;;;;;6134157;23;20228;-86
2021/03/23 11:07:17;;;;;;;11.97;4.70;;;8.80;99.90;;;;;;6134046;23;20158;-86
2021/03/23 11:09:43;;;;;;;16.07;6.63;;;8.90;99.90;;;;;;6135453;23;20173;-86
2021/03/23 11:12:09;;;;;;;13.57;5.40;;;8.80;99.90;;;;;;6134557;23;20193;-87
2021/03/23 11:14:35;;;;;;;11.00;5.00;;;8.90;99.90;;;;;;6134294;23;20189;-87
2021/03/23 11:17:03;;;;;;;14.80;4.30;;;8.70;99.90;;;;;;6134665;23;20169;-86
2021/03/23 11:19:31;;;;;;;12.57;4.87;;;8.70;99.90;;;;;;6136446;23;20216;-86
2021/03/23 11:21:59;;;;;;;12.10;5.30;;;8.60;99.90;;;;;;6134662;23;20172;-86
2021/03/23 11:24:28;;;;;;;11.67;5.37;;;8.70;99.90;;;;;;6134474;23;20157;-87
2021/03/23 11:26:54;;;;;;;11.20;5.07;;;8.80;99.90;;;;;;6134068;23;20269;-87
2021/03/23 11:29:20;;;;;;;11.50;5.40;;;8.90;99.90;;;;;;6133972;23;20224;-87
2021/03/23 11:31:46;;;;;;;12.67;6.00;;;9.00;99.90;;;;;;6135158;23;20186;-86
2021/03/23 11:34:12;;;;;;;12.90;6.10;;;9.00;99.90;;;;;;6133981;23;20164;-86
2021/03/23 11:36:38;;;;;;;13.00;5.67;;;9.00;99.90;;;;;;6134679;23;20207;-87
2021/03/23 11:39:06;;;;;;;13.93;5.30;;;8.90;99.90;;;;;;6135255;23;20200;-87
2021/03/23 11:41:41;;;;;;;13.37;6.47;;;8.90;99.90;;;;;;6134311;23;20192;-87
2021/03/23 11:44:30;;;;;;;11.93;6.47;;;8.80;99.90;;;;;;6134533;23;20156;-86
2021/03/23 11:47:08;;;;;;;12.97;6.23;;;8.80;99.90;;;;;;6135215;23;20524;-87
2021/03/23 11:50:07;;;;;;;16.80;6.83;;;8.80;99.90;;;;;;6134273;23;20184;-87
2021/03/23 11:52:36;;;;;;;14.70;6.90;;;8.70;99.90;;;;;;6134171;23;20182;-86
2021/03/23 11:55:04;;;;;;;15.03;7.50;;;8.70;99.90;;;;;;6133858;23;20161;-87
2021/03/23 11:57:30;;;;;;;18.07;8.43;;;8.70;99.90;;;;;;6134794;23;20153;-86
2021/03/23 11:59:56;;;;;;;17.33;8.23;;;8.60;99.90;;;;;;6135445;23;20174;-87
2021/03/23 12:02:22;;;;;;;20.97;8.37;;;8.50;99.90;;;;;;6133929;23;20605;-87
2021/03/23 12:04:48;;;;;;;18.83;8.10;;;8.40;99.90;;;;;;6135078;23;20196;-87
2021/03/23 12:07:51;;;;;;;19.73;8.17;;;8.40;99.90;;;;;;6133904;23;20161;-87
2021/03/23 12:10:22;;;;;;;18.10;8.03;;;8.30;99.90;;;;;;6135318;23;20492;-87
2021/03/23 12:12:57;;;;;;;20.07;8.13;;;8.30;99.90;;;;;;6135952;23;20579;-86
2021/03/23 12:15:31;;;;;;;17.63;8.83;;;8.30;99.90;;;;;;6136065;23;20168;-86
2021/03/23 12:17:59;;;;;;;17.70;8.40;;;8.40;99.90;;;;;;6134673;23;20204;-87
2021/03/23 12:20:30;;;;;;;25.13;11.93;;;8.50;99.90;;;;;;6135945;23;20185;-86
2021/03/23 12:22:55;;;;;;;19.50;8.87;;;8.40;99.90;;;;;;6135137;23;20221;-88
2021/03/23 12:25:23;;;;;;;25.63;9.17;;;8.20;99.90;;;;;;6133523;23;20208;-87
2021/03/23 12:27:49;;;;;;;27.33;9.53;;;8.30;99.90;;;;;;6135926;23;20158;-87
2021/03/23 12:30:16;;;;;;;22.17;10.53;;;8.30;99.90;;;;;;6135700;23;20178;-87
2021/03/23 12:32:41;;;;;;;17.47;9.00;;;8.30;99.90;;;;;;6133034;23;20185;-86
2021/03/23 12:35:13;;;;;;;18.33;8.67;;;8.30;99.90;;;;;;6133222;23;20164;-87
2021/03/23 12:37:41;;;;;;;19.63;8.23;;;8.30;99.90;;;;;;6133513;23;20153;-87
2021/03/23 12:40:09;;;;;;;17.27;8.10;;;8.40;99.90;;;;;;6133805;23;20786;-86
2021/03/23 12:42:34;;;;;;;22.30;8.83;;;8.50;99.90;;;;;;6133566;23;20160;-85
2021/03/23 12:45:01;;;;;;;22.27;10.17;;;8.50;99.90;;;;;;6132221;23;20567;-86
2021/03/23 12:47:30;;;;;;;19.87;8.63;;;8.30;99.90;;;;;;6132748;23;20245;-87
2021/03/23 12:49:56;;;;;;;19.00;9.00;;;8.30;99.90;;;;;;6133537;23;20185;-86
2021/03/23 12:52:22;;;;;;;24.47;12.27;;;8.30;99.90;;;;;;6133604;23;20192;-86
2021/03/23 12:54:53;;;;;;;17.30;9.77;;;8.30;99.90;;;;;;6133560;23;20158;-86
2021/03/23 12:57:22;;;;;;;22.90;9.80;;;8.30;99.90;;;;;;6134686;23;20160;-86
2021/03/23 12:59:50;;;;;;;22.93;9.80;;;8.20;99.90;;;;;;6132260;23;20520;-85
2021/03/23 13:02:19;;;;;;;20.10;8.90;;;8.20;99.90;;;;;;6136144;23;20173;-86
2021/03/23 13:04:45;;;;;;;19.97;8.33;;;8.10;99.90;;;;;;6133750;23;20153;-86
2021/03/23 13:07:21;;;;;;;19.80;8.30;;;8.10;99.90;;;;;;6132328;23;20645;-87
2021/03/23 13:09:48;;;;;;;24.17;9.83;;;8.10;99.90;;;;;;6132518;23;20177;-86
2021/03/23 13:12:13;;;;;;;21.27;10.17;;;8.00;99.90;;;;;;6132338;23;20344;-86
2021/03/23 13:14:40;;;;;;;22.10;10.33;;;8.00;99.90;;;;;;6135637;23;20145;-86
2021/03/23 13:17:08;;;;;;;22.57;9.70;;;8.00;99.90;;;;;;6133174;23;20617;-86
2021/03/23 13:19:33;;;;;;;23.77;9.93;;;8.00;99.90;;;;;;6134484;23;20201;-86
2021/03/23 13:22:02;;;;;;;19.97;9.57;;;8.10;99.90;;;;;;6131516;23;20157;-86
2021/03/23 13:24:43;;;;;;;19.17;9.33;;;8.10;99.90;;;;;;6132138;23;20261;-86
2021/03/23 13:27:25;;;;;;;21.37;9.27;;;8.20;99.90;;;;;;6131146;23;20153;-86
2021/03/23 13:29:52;;;;;;;21.60;10.37;;;8.10;99.90;;;;;;6131667;23;20188;-86
2021/03/23 13:32:19;;;;;;;22.97;9.27;;;8.10;99.90;;;;;;6132134;23;20181;-85
2021/03/23 13:34:45;;;;;;;19.13;9.60;;;8.20;99.90;;;;;;6130310;23;20160;-86
2021/03/23 13:37:14;;;;;;;21.73;9.13;;;8.20;99.90;;;;;;6131240;23;20153;-86
2021/03/23 13:39:50;;;;;;;18.27;8.83;;;8.10;99.90;;;;;;6132954;23;20269;-87
2021/03/23 13:42:18;;;;;;;24.90;9.90;;;8.10;99.90;;;;;;6132456;23;20145;-85
2021/03/23 13:45:12;;;;;;;19.13;9.67;;;8.10;99.90;;;;;;6133853;23;20180;-87
2021/03/23 13:47:40;;;;;;;18.87;8.83;;;8.20;99.90;;;;;;6132103;23;20157;-86
2021/03/23 13:50:06;;;;;;;22.60;9.90;;;8.10;99.90;;;;;;6133289;23;20173;-86
2021/03/23 13:52:36;;;;;;;21.30;8.87;;;8.20;99.90;;;;;;6132398;23;20181;-86
2021/03/23 13:55:24;;;;;;;21.40;10.20;;;8.10;99.90;;;;;;6131207;23;20477;-86
2021/03/23 13:57:51;;;;;;;23.27;10.50;;;8.10;99.90;;;;;;6133618;23;20157;-86
2021/03/23 14:00:25;;;;;;;21.73;9.93;;;8.00;99.90;;;;;;6131606;23;20264;-86
2021/03/23 14:02:51;;;;;;;24.93;13.63;;;8.10;99.90;;;;;;6134560;23;20226;-87
2021/03/23 14:05:16;;;;;;;27.70;13.70;;;8.00;99.90;;;;;;6134567;23;20164;-86
2021/03/23 14:07:45;;;;;;;27.43;15.10;;;8.10;99.90;;;;;;6133472;23;20189;-86
2021/03/23 14:10:17;;;;;;;22.43;11.47;;;8.10;99.90;;;;;;6132512;23;20212;-86
2021/03/23 20:15:38;;;;;;;46.73;22.30;;;7.30;99.90;;;;;;6222699;23;20202;-87
2021/03/23 20:18:05;;;;;;;49.90;22.03;;;7.20;99.90;;;;;;6220239;23;20158;-87
2021/03/23 20:20:33;;;;;;;50.10;23.90;;;7.20;99.90;;;;;;6197064;23;20151;-85
2021/03/23 20:22:59;;;;;;;50.17;22.70;;;7.10;99.90;;;;;;6191966;23;20176;-87
2021/03/23 20:25:28;;;;;;;56.63;23.83;;;7.10;99.90;;;;;;6169200;23;20209;-86
2021/03/23 20:27:54;;;;;;;44.50;21.43;;;7.20;99.90;;;;;;6167060;23;20183;-86
2021/03/23 20:30:22;;;;;;;47.57;21.60;;;7.20;99.90;;;;;;6165278;23;20160;-85
2021/03/23 20:32:52;;;;;;;43.57;20.90;;;7.20;99.90;;;;;;6193967;23;20184;-84
2021/03/23 20:35:30;;;;;;;42.67;20.73;;;7.20;99.90;;;;;;6164932;23;20148;-84
2021/03/23 20:37:56;;;;;;;48.50;23.33;;;7.20;99.90;;;;;;6166948;23;20175;-87
2021/03/23 20:40:23;;;;;;;47.13;22.27;;;7.30;99.90;;;;;;6193084;23;20144;-85
2021/03/23 20:42:50;;;;;;;54.27;22.33;;;7.20;99.90;;;;;;6192562;23;20168;-86
2021/03/23 20:45:18;;;;;;;48.20;22.27;;;7.20;99.90;;;;;;6195615;23;20270;-86
2021/03/23 20:47:43;;;;;;;50.40;22.50;;;7.20;99.90;;;;;;6193555;23;20219;-87
2021/03/23 20:50:18;;;;;;;50.77;23.17;;;7.00;99.90;;;;;;6165960;23;20157;-86
2021/03/23 20:52:43;;;;;;;47.43;22.27;;;7.00;99.90;;;;;;6167517;23;20203;-87
2021/03/23 20:55:10;;;;;;;47.40;22.77;;;7.00;99.90;;;;;;6168490;23;20152;-86
2021/03/23 20:57:35;;;;;;;49.80;23.30;;;7.00;99.90;;;;;;6197093;23;20627;-86
2021/03/23 21:00:01;;;;;;;48.73;20.97;;;7.00;99.90;;;;;;6168663;23;20156;-85
2021/03/23 21:02:26;;;;;;;50.20;22.57;;;7.00;99.90;;;;;;6168301;23;20183;-86
2021/03/23 21:04:53;;;;;;;44.80;20.33;;;7.00;99.90;;;;;;6168536;23;20164;-85
2021/03/23 21:07:20;;;;;;;33.77;17.10;;;6.90;99.90;;;;;;6195581;23;20165;-86
2021/03/23 21:09:46;;;;;;;37.60;17.97;;;6.90;99.90;;;;;;6166996;23;20216;-85
2021/03/23 21:12:12;;;;;;;38.60;17.80;;;6.90;99.90;;;;;;6169523;23;20639;-86
2021/03/23 21:14:37;;;;;;;35.70;16.73;;;6.90;99.90;;;;;;6168663;23;20168;-85
2021/03/23 21:17:04;;;;;;;34.27;16.83;;;7.00;99.90;;;;;;6194342;23;20152;-86
2021/03/23 21:19:29;;;;;;;29.17;13.90;;;6.90;99.90;;;;;;6193327;23;20174;-86
2021/03/23 21:21:55;;;;;;;32.17;13.70;;;6.80;99.90;;;;;;6167723;23;20215;-85
2021/03/23 21:24:20;;;;;;;29.10;13.43;;;6.90;99.90;;;;;;6166083;23;20180;-85
2021/03/23 21:26:46;;;;;;;27.40;12.27;;;6.80;99.90;;;;;;6190723;23;20157;-84
2021/03/23 21:29:13;;;;;;;28.43;13.33;;;6.90;99.90;;;;;;6191661;23;20152;-84
2021/03/23 21:31:44;;;;;;;31.63;14.53;;;6.90;99.90;;;;;;6164199;23;20145;-84
2021/03/23 21:34:12;;;;;;;29.20;13.93;;;6.90;99.90;;;;;;6164496;23;20263;-84
2021/03/23 21:36:38;;;;;;;29.00;14.07;;;6.80;99.90;;;;;;6165643;23;20579;-85
2021/03/23 21:39:05;;;;;;;27.73;13.07;;;6.80;99.90;;;;;;6165291;23;20160;-84
2021/03/23 21:41:35;;;;;;;30.37;12.90;;;6.80;99.90;;;;;;6166263;23;20160;-84
2021/03/23 21:44:02;;;;;;;28.83;12.93;;;6.80;99.90;;;;;;6191012;23;20171;-84
2021/03/23 21:46:28;;;;;;;28.23;12.67;;;6.80;99.90;;;;;;6165535;23;20148;-84
2021/03/23 21:48:54;;;;;;;31.57;13.67;;;6.70;99.90;;;;;;6164137;23;20156;-84
2021/03/23 21:51:21;;;;;;;26.57;12.27;;;6.70;99.90;;;;;;6165148;23;20155;-85
2021/03/23 21:53:47;;;;;;;28.17;11.67;;;6.60;99.90;;;;;;6192741;23;20191;-85
2021/03/23 21:56:15;;;;;;;29.60;13.43;;;6.60;99.90;;;;;;6164174;23;20238;-85
2021/03/23 21:58:40;;;;;;;22.80;11.27;;;6.60;99.90;;;;;;6165080;23;20211;-85
2021/03/23 22:01:20;;;;;;;28.00;12.97;;;6.70;99.90;;;;;;6194003;23;20144;-85
2021/03/23 22:03:46;;;;;;;27.37;11.57;;;6.60;99.90;;;;;;6168875;23;20176;-85
2021/03/23 22:06:14;;;;;;;27.50;11.90;;;6.60;99.90;;;;;;6195645;23;20166;-85
2021/03/23 22:08:41;;;;;;;29.23;12.77;;;6.60;99.90;;;;;;6195815;23;20152;-84
2021/03/23 22:11:07;;;;;;;26.57;12.60;;;6.60;99.90;;;;;;6195012;23;20150;-85
2021/03/23 22:13:34;;;;;;;26.83;11.33;;;6.50;99.90;;;;;;6169129;23;20196;-85
2021/03/23 22:16:00;;;;;;;21.23;11.80;;;6.60;99.90;;;;;;6169471;23;20155;-85
2021/03/23 22:18:27;;;;;;;27.43;11.73;;;6.60;99.90;;;;;;6194505;23;20156;-85
2021/03/23 22:20:53;;;;;;;26.73;11.60;;;6.60;99.90;;;;;;6195025;23;20151;-84
2021/03/23 22:23:20;;;;;;;25.33;10.70;;;6.60;99.90;;;;;;6169884;23;20176;-85
2021/03/23 22:25:47;;;;;;;22.53;10.90;;;6.50;99.90;;;;;;6170729;23;20616;-85
2021/03/23 22:28:15;;;;;;;26.03;11.23;;;6.50;99.90;;;;;;6197246;23;20605;-84
2021/03/23 22:30:43;;;;;;;24.30;11.13;;;6.60;99.90;;;;;;6169542;23;20219;-84
2021/03/23 22:33:09;;;;;;;22.80;10.13;;;6.60;99.90;;;;;;6170804;23;20255;-84
2021/03/23 22:35:35;;;;;;;20.13;10.57;;;6.60;99.90;;;;;;6171542;23;20152;-84
2021/03/23 22:38:01;;;;;;;22.20;9.83;;;6.60;99.90;;;;;;6170949;23;20152;-85
2021/03/23 22:40:43;;;;;;;22.13;10.23;;;6.60;99.90;;;;;;6195682;23;20148;-84
2021/03/23 22:43:08;;;;;;;22.53;9.87;;;6.60;99.90;;;;;;6172307;23;20176;-85
2021/03/23 22:45:34;;;;;;;23.90;11.47;;;6.70;99.90;;;;;;6198064;23;20686;-84
2021/03/23 22:48:00;;;;;;;23.63;10.27;;;6.70;99.90;;;;;;6171652;23;20604;-84
2021/03/23 22:50:30;;;;;;;21.20;9.53;;;6.60;99.90;;;;;;6170373;23;20163;-85
2021/03/23 22:52:56;;;;;;;23.90;11.13;;;6.60;99.90;;;;;;6196709;23;20194;-85
2021/03/23 22:55:22;;;;;;;22.27;10.47;;;6.60;99.90;;;;;;6197061;23;20175;-85
2021/03/23 22:57:47;;;;;;;22.20;10.67;;;6.70;99.90;;;;;;6172394;23;20207;-85
2021/03/23 23:00:40;;;;;;;20.67;10.57;;;6.70;99.90;;;;;;6169915;23;20152;-85
2021/03/23 23:03:08;;;;;;;21.83;10.63;;;6.70;99.90;;;;;;6193671;23;20180;-86
2021/03/23 23:05:44;;;;;;;19.60;10.47;;;6.70;99.90;;;;;;6170971;23;20482;-85
2021/03/23 23:08:12;;;;;;;24.97;11.77;;;6.70;99.90;;;;;;6170480;23;20167;-85
2021/03/23 23:10:51;;;;;;;23.30;10.13;;;6.70;99.90;;;;;;6169314;23;20687;-85
2021/03/23 23:13:18;;;;;;;23.13;10.80;;;6.70;99.90;;;;;;6169417;23;20277;-86
2021/03/23 23:15:55;;;;;;;25.80;11.80;;;6.70;99.90;;;;;;6193842;23;20166;-84
2021/03/23 23:18:26;;;;;;;22.50;11.53;;;6.60;99.90;;;;;;6195342;23;20211;-85
2021/03/23 23:21:04;;;;;;;22.63;11.60;;;6.60;99.90;;;;;;6198221;23;20136;-85
2021/03/23 23:23:30;;;;;;;26.33;11.60;;;6.60;99.90;;;;;;6195124;23;20176;-85
2021/03/23 23:25:56;;;;;;;27.83;12.80;;;6.60;99.90;;;;;;6172029;23;20635;-84
2021/03/23 23:28:25;;;;;;;23.83;12.47;;;6.60;99.90;;;;;;6198617;23;20152;-85
2021/03/23 23:30:51;;;;;;;25.63;12.43;;;6.60;99.90;;;;;;6171428;23;20163;-84
2021/03/23 23:33:18;;;;;;;27.00;11.33;;;6.50;99.90;;;;;;6171260;23;20270;-84
2021/03/23 23:35:44;;;;;;;22.90;10.87;;;6.50;99.90;;;;;;6170440;23;20674;-85
2021/03/23 23:38:12;;;;;;;27.87;12.67;;;6.60;99.90;;;;;;6198288;23;20140;-84
2021/03/23 23:40:39;;;;;;;23.80;11.67;;;6.60;99.90;;;;;;6194995;23;20153;-85
2021/03/23 23:43:05;;;;;;;24.87;11.53;;;6.70;99.90;;;;;;6197291;23;20176;-84
2021/03/23 23:45:33;;;;;;;23.97;12.47;;;6.50;99.90;;;;;;6172141;23;20167;-84
2021/03/23 23:48:03;;;;;;;25.77;12.30;;;6.60;99.90;;;;;;6172116;23;20197;-85
2021/03/23 23:50:34;;;;;;;26.77;13.23;;;6.60;99.90;;;;;;6171172;23;20424;-85
2021/03/23 23:53:00;;;;;;;28.43;12.63;;;6.50;99.90;;;;;;6198051;23;20184;-84
2021/03/23 23:55:25;;;;;;;29.47;12.47;;;6.50;99.90;;;;;;6171711;23;20182;-84
2021/03/23 23:57:51;;;;;;;25.80;12.60;;;6.50;99.90;;;;;;6169567;23;20156;-84
